sensor_id;sensor_type;location;lat;lon;timestamp;pressure;altitude;pressure_sealevel;temperature;humidity
65010;BME280;51556;50.002;22.014;2022-09-09T00:02:05;98837.36;;;19.62;74.60
65010;BME280;51556;50.002;22.014;2022-09-09T00:04:36;98839.73;;;19.64;74.78
65010;BME280;51556;50.002;22.014;2022-09-09T00:07:22;98833.30;;;19.67;74.46
65010;BME280;51556;50.002;22.014;2022-09-09T00:18:55;98843.01;;;19.68;74.20
65010;BME280;51556;50.002;22.014;2022-09-09T00:21:33;98841.62;;;19.70;74.21
65010;BME280;51556;50.002;22.014;2022-09-09T00:24:00;98853.50;;;19.71;74.17
65010;BME280;51556;50.002;22.014;2022-09-09T00:26:42;98855.59;;;19.75;74.17
65010;BME280;51556;50.002;22.014;2022-09-09T00:31:40;98843.45;;;19.87;73.99
65010;BME280;51556;50.002;22.014;2022-09-09T00:34:15;98846.61;;;19.88;74.01
65010;BME280;51556;50.002;22.014;2022-09-09T00:36:43;98850.28;;;19.89;73.87
65010;BME280;51556;50.002;22.014;2022-09-09T00:39:31;98850.25;;;19.92;73.86
65010;BME280;51556;50.002;22.014;2022-09-09T00:50:33;98842.94;;;19.74;74.20
65010;BME280;51556;50.002;22.014;2022-09-09T00:55:53;98845.22;;;19.58;74.36
65010;BME280;51556;50.002;22.014;2022-09-09T00:58:21;98848.52;;;19.49;74.63
65010;BME280;51556;50.002;22.014;2022-09-09T01:00:52;98847.08;;;19.43;74.88
65010;BME280;51556;50.002;22.014;2022-09-09T01:06:22;98846.30;;;19.26;75.45
65010;BME280;51556;50.002;22.014;2022-09-09T01:17:30;98839.48;;;19.24;75.75
65010;BME280;51556;50.002;22.014;2022-09-09T01:27:47;98850.39;;;19.34;75.77
65010;BME280;51556;50.002;22.014;2022-09-09T01:30:16;98852.21;;;19.36;75.25
65010;BME280;51556;50.002;22.014;2022-09-09T01:32:45;98850.73;;;19.34;75.10
65010;BME280;51556;50.002;22.014;2022-09-09T01:37:56;98853.96;;;19.16;74.60
65010;BME280;51556;50.002;22.014;2022-09-09T01:40:23;98854.65;;;19.09;74.81
65010;BME280;51556;50.002;22.014;2022-09-09T01:42:49;98858.73;;;19.07;75.04
65010;BME280;51556;50.002;22.014;2022-09-09T01:45:15;98860.43;;;19.08;74.81
65010;BME280;51556;50.002;22.014;2022-09-09T01:47:41;98863.24;;;19.05;74.65
65010;BME280;51556;50.002;22.014;2022-09-09T01:50:09;98867.33;;;19.03;74.69
65010;BME280;51556;50.002;22.014;2022-09-09T01:52:36;98866.52;;;19.02;74.67
65010;BME280;51556;50.002;22.014;2022-09-09T01:55:04;98870.58;;;19.02;74.62
65010;BME280;51556;50.002;22.014;2022-09-09T02:00:19;98869.84;;;18.97;74.32
65010;BME280;51556;50.002;22.014;2022-09-09T02:03:25;98866.16;;;18.97;74.38
65010;BME280;51556;50.002;22.014;2022-09-09T02:08:53;98863.95;;;18.93;74.61
65010;BME280;51556;50.002;22.014;2022-09-09T02:11:27;98865.29;;;18.89;74.69
65010;BME280;51556;50.002;22.014;2022-09-09T02:14:00;98867.69;;;18.88;74.73
65010;BME280;51556;50.002;22.014;2022-09-09T02:16:43;98869.02;;;18.86;74.60
65010;BME280;51556;50.002;22.014;2022-09-09T02:22:11;98864.71;;;18.87;74.74
65010;BME280;51556;50.002;22.014;2022-09-09T02:24:39;98868.63;;;18.90;74.71
65010;BME280;51556;50.002;22.014;2022-09-09T02:27:08;98864.08;;;18.91;74.48
65010;BME280;51556;50.002;22.014;2022-09-09T02:29:37;98860.63;;;18.92;74.52
65010;BME280;51556;50.002;22.014;2022-09-09T02:32:09;98856.85;;;18.92;74.38
65010;BME280;51556;50.002;22.014;2022-09-09T02:34:42;98858.96;;;18.95;74.53
65010;BME280;51556;50.002;22.014;2022-09-09T02:37:09;98860.09;;;18.97;74.43
65010;BME280;51556;50.002;22.014;2022-09-09T02:39:36;98864.84;;;19.00;74.32
65010;BME280;51556;50.002;22.014;2022-09-09T02:42:04;98861.95;;;19.01;74.50
65010;BME280;51556;50.002;22.014;2022-09-09T02:44:30;98861.72;;;18.99;74.39
65010;BME280;51556;50.002;22.014;2022-09-09T02:47:30;98861.38;;;18.99;74.45
65010;BME280;51556;50.002;22.014;2022-09-09T02:50:08;98866.25;;;18.98;74.38
65010;BME280;51556;50.002;22.014;2022-09-09T02:58:05;98866.91;;;19.01;74.24
65010;BME280;51556;50.002;22.014;2022-09-09T03:00:33;98870.84;;;19.01;74.34
65010;BME280;51556;50.002;22.014;2022-09-09T03:03:03;98866.95;;;19.01;74.27
65010;BME280;51556;50.002;22.014;2022-09-09T03:05:28;98869.63;;;19.01;74.22
65010;BME280;51556;50.002;22.014;2022-09-09T03:07:54;98874.50;;;19.02;74.28
65010;BME280;51556;50.002;22.014;2022-09-09T03:10:20;98875.43;;;19.05;74.04
65010;BME280;51556;50.002;22.014;2022-09-09T03:12:45;98879.87;;;19.08;73.98
65010;BME280;51556;50.002;22.014;2022-09-09T03:15:11;98877.95;;;19.07;73.90
65010;BME280;51556;50.002;22.014;2022-09-09T03:17:37;98881.21;;;19.06;74.04
65010;BME280;51556;50.002;22.014;2022-09-09T03:20:03;98881.73;;;19.04;74.03
65010;BME280;51556;50.002;22.014;2022-09-09T03:22:29;98879.71;;;18.99;74.03
65010;BME280;51556;50.002;22.014;2022-09-09T03:24:55;98879.14;;;19.00;74.32
65010;BME280;51556;50.002;22.014;2022-09-09T03:27:20;98874.90;;;18.99;74.30
65010;BME280;51556;50.002;22.014;2022-09-09T03:29:46;98873.69;;;18.96;74.44
65010;BME280;51556;50.002;22.014;2022-09-09T03:32:12;98869.81;;;18.95;74.59
65010;BME280;51556;50.002;22.014;2022-09-09T03:34:38;98876.27;;;18.95;74.55
65010;BME280;51556;50.002;22.014;2022-09-09T03:37:07;98872.52;;;18.93;74.77
65010;BME280;51556;50.002;22.014;2022-09-09T03:39:32;98874.25;;;18.96;74.85
65010;BME280;51556;50.002;22.014;2022-09-09T03:41:58;98880.71;;;18.98;75.18
65010;BME280;51556;50.002;22.014;2022-09-09T03:44:23;98877.67;;;18.95;75.22
65010;BME280;51556;50.002;22.014;2022-09-09T03:46:49;98878.57;;;18.95;75.26
65010;BME280;51556;50.002;22.014;2022-09-09T03:49:14;98881.65;;;18.97;75.34
65010;BME280;51556;50.002;22.014;2022-09-09T03:51:40;98882.27;;;18.96;75.31
65010;BME280;51556;50.002;22.014;2022-09-09T03:54:09;98883.52;;;18.93;75.26
65010;BME280;51556;50.002;22.014;2022-09-09T03:56:35;98878.75;;;18.93;75.78
65010;BME280;51556;50.002;22.014;2022-09-09T03:59:02;98879.03;;;18.91;76.23
65010;BME280;51556;50.002;22.014;2022-09-09T04:01:28;98880.13;;;18.91;75.89
65010;BME280;51556;50.002;22.014;2022-09-09T04:03:53;98880.28;;;18.91;76.02
65010;BME280;51556;50.002;22.014;2022-09-09T04:06:22;98877.92;;;18.92;75.92
65010;BME280;51556;50.002;22.014;2022-09-09T04:08:48;98880.00;;;18.95;75.92
65010;BME280;51556;50.002;22.014;2022-09-09T04:11:14;98876.17;;;18.96;75.71
65010;BME280;51556;50.002;22.014;2022-09-09T04:13:40;98871.77;;;19.00;75.60
65010;BME280;51556;50.002;22.014;2022-09-09T04:16:08;98875.58;;;19.05;75.75
65010;BME280;51556;50.002;22.014;2022-09-09T04:18:34;98876.89;;;19.04;75.77
65010;BME280;51556;50.002;22.014;2022-09-09T04:21:00;98878.09;;;19.05;75.99
65010;BME280;51556;50.002;22.014;2022-09-09T04:23:27;98879.16;;;19.05;76.00
65010;BME280;51556;50.002;22.014;2022-09-09T04:25:57;98882.77;;;19.04;76.08
65010;BME280;51556;50.002;22.014;2022-09-09T04:28:26;98881.59;;;19.06;76.06
65010;BME280;51556;50.002;22.014;2022-09-09T04:30:52;98880.63;;;19.04;76.40
65010;BME280;51556;50.002;22.014;2022-09-09T04:33:18;98878.34;;;19.04;76.39
65010;BME280;51556;50.002;22.014;2022-09-09T04:35:49;98876.13;;;19.05;76.19
65010;BME280;51556;50.002;22.014;2022-09-09T04:38:15;98878.06;;;19.05;76.12
65010;BME280;51556;50.002;22.014;2022-09-09T04:40:43;98883.92;;;19.03;76.30
65010;BME280;51556;50.002;22.014;2022-09-09T04:43:09;98885.44;;;19.02;76.21
65010;BME280;51556;50.002;22.014;2022-09-09T04:45:35;98887.27;;;19.07;76.50
65010;BME280;51556;50.002;22.014;2022-09-09T04:48:01;98889.59;;;19.09;76.40
65010;BME280;51556;50.002;22.014;2022-09-09T04:50:28;98890.11;;;19.12;76.50
65010;BME280;51556;50.002;22.014;2022-09-09T04:52:54;98891.15;;;19.15;76.31
65010;BME280;51556;50.002;22.014;2022-09-09T04:55:19;98896.38;;;19.17;76.44
65010;BME280;51556;50.002;22.014;2022-09-09T04:57:45;98898.20;;;19.19;76.12
65010;BME280;51556;50.002;22.014;2022-09-09T05:00:12;98899.77;;;19.19;76.20
65010;BME280;51556;50.002;22.014;2022-09-09T05:02:39;98901.19;;;19.22;75.87
65010;BME280;51556;50.002;22.014;2022-09-09T05:05:05;98902.23;;;19.22;75.91
65010;BME280;51556;50.002;22.014;2022-09-09T05:07:31;98906.84;;;19.20;75.89
65010;BME280;51556;50.002;22.014;2022-09-09T05:09:57;98913.90;;;19.19;75.79
65010;BME280;51556;50.002;22.014;2022-09-09T05:12:23;98911.73;;;19.17;76.09
65010;BME280;51556;50.002;22.014;2022-09-09T05:14:52;98912.40;;;19.12;76.07
65010;BME280;51556;50.002;22.014;2022-09-09T05:17:17;98917.80;;;19.09;76.32
65010;BME280;51556;50.002;22.014;2022-09-09T05:19:43;98918.40;;;19.08;76.54
65010;BME280;51556;50.002;22.014;2022-09-09T05:22:09;98918.62;;;19.10;76.42
65010;BME280;51556;50.002;22.014;2022-09-09T05:24:37;98921.16;;;19.12;76.56
65010;BME280;51556;50.002;22.014;2022-09-09T05:27:03;98921.40;;;19.14;76.47
65010;BME280;51556;50.002;22.014;2022-09-09T05:29:31;98925.72;;;19.13;76.29
65010;BME280;51556;50.002;22.014;2022-09-09T05:31:59;98919.29;;;19.10;76.35
65010;BME280;51556;50.002;22.014;2022-09-09T05:34:25;98921.31;;;19.10;76.46
65010;BME280;51556;50.002;22.014;2022-09-09T05:36:50;98918.45;;;19.10;76.54
65010;BME280;51556;50.002;22.014;2022-09-09T05:39:17;98924.04;;;19.09;76.77
65010;BME280;51556;50.002;22.014;2022-09-09T05:41:43;98932.45;;;19.08;76.60
65010;BME280;51556;50.002;22.014;2022-09-09T05:44:08;98933.05;;;19.10;76.93
65010;BME280;51556;50.002;22.014;2022-09-09T05:46:34;98932.65;;;19.11;76.90
65010;BME280;51556;50.002;22.014;2022-09-09T05:48:59;98931.88;;;19.11;76.80
65010;BME280;51556;50.002;22.014;2022-09-09T05:51:26;98934.95;;;19.11;76.88
65010;BME280;51556;50.002;22.014;2022-09-09T05:53:53;98937.06;;;19.12;76.88
65010;BME280;51556;50.002;22.014;2022-09-09T05:56:25;98942.53;;;19.15;76.95
65010;BME280;51556;50.002;22.014;2022-09-09T05:58:52;98941.55;;;19.19;76.98
65010;BME280;51556;50.002;22.014;2022-09-09T06:03:52;98943.20;;;19.18;76.87
65010;BME280;51556;50.002;22.014;2022-09-09T06:06:37;98948.15;;;19.19;77.05
65010;BME280;51556;50.002;22.014;2022-09-09T06:09:06;98948.33;;;19.24;77.09
65010;BME280;51556;50.002;22.014;2022-09-09T06:11:35;98948.05;;;19.26;77.18
65010;BME280;51556;50.002;22.014;2022-09-09T06:14:01;98946.55;;;19.24;77.23
65010;BME280;51556;50.002;22.014;2022-09-09T06:16:28;98947.16;;;19.28;77.34
65010;BME280;51556;50.002;22.014;2022-09-09T06:18:55;98951.74;;;19.31;77.31
65010;BME280;51556;50.002;22.014;2022-09-09T06:21:35;98954.92;;;19.29;77.29
65010;BME280;51556;50.002;22.014;2022-09-09T06:24:06;98953.05;;;19.28;77.18
65010;BME280;51556;50.002;22.014;2022-09-09T06:26:34;98955.85;;;19.29;77.05
65010;BME280;51556;50.002;22.014;2022-09-09T06:29:01;98952.70;;;19.23;77.08
65010;BME280;51556;50.002;22.014;2022-09-09T06:31:30;98959.20;;;19.19;77.20
65010;BME280;51556;50.002;22.014;2022-09-09T06:33:58;98961.84;;;19.20;77.48
65010;BME280;51556;50.002;22.014;2022-09-09T06:36:26;98961.23;;;19.18;77.45
65010;BME280;51556;50.002;22.014;2022-09-09T06:38:52;98966.05;;;19.18;77.45
65010;BME280;51556;50.002;22.014;2022-09-09T06:41:19;98966.41;;;19.21;77.63
65010;BME280;51556;50.002;22.014;2022-09-09T06:43:46;98966.84;;;19.17;77.57
65010;BME280;51556;50.002;22.014;2022-09-09T06:46:15;98968.86;;;19.13;77.38
65010;BME280;51556;50.002;22.014;2022-09-09T06:48:42;98975.65;;;19.08;77.51
65010;BME280;51556;50.002;22.014;2022-09-09T06:51:10;98980.08;;;19.03;77.30
65010;BME280;51556;50.002;22.014;2022-09-09T06:53:40;98983.91;;;18.99;77.26
65010;BME280;51556;50.002;22.014;2022-09-09T06:58:44;98994.92;;;18.94;77.09
65010;BME280;51556;50.002;22.014;2022-09-09T07:01:12;98999.25;;;18.86;77.10
65010;BME280;51556;50.002;22.014;2022-09-09T07:03:39;99003.67;;;18.72;77.30
65010;BME280;51556;50.002;22.014;2022-09-09T07:06:06;99006.89;;;18.69;77.62
65010;BME280;51556;50.002;22.014;2022-09-09T07:08:33;99007.71;;;18.73;77.44
65010;BME280;51556;50.002;22.014;2022-09-09T07:11:06;99013.08;;;18.73;77.20
65010;BME280;51556;50.002;22.014;2022-09-09T07:13:33;99015.62;;;18.78;77.23
65010;BME280;51556;50.002;22.014;2022-09-09T07:16:05;99018.48;;;18.81;77.17
65010;BME280;51556;50.002;22.014;2022-09-09T07:18:31;99023.59;;;18.84;76.96
65010;BME280;51556;50.002;22.014;2022-09-09T07:20:56;99018.85;;;18.92;76.62
65010;BME280;51556;50.002;22.014;2022-09-09T07:23:23;99021.02;;;18.96;76.39
65010;BME280;51556;50.002;22.014;2022-09-09T07:25:49;99025.94;;;19.00;76.16
65010;BME280;51556;50.002;22.014;2022-09-09T07:28:16;99025.33;;;19.04;76.00
65010;BME280;51556;50.002;22.014;2022-09-09T07:30:42;99025.20;;;19.06;76.04
65010;BME280;51556;50.002;22.014;2022-09-09T07:33:08;99026.70;;;19.10;76.12
65010;BME280;51556;50.002;22.014;2022-09-09T07:35:35;99026.86;;;19.16;76.01
65010;BME280;51556;50.002;22.014;2022-09-09T07:38:02;99021.58;;;19.23;76.10
65010;BME280;51556;50.002;22.014;2022-09-09T07:40:32;99025.33;;;19.25;75.74
65010;BME280;51556;50.002;22.014;2022-09-09T07:42:59;99034.90;;;19.29;75.58
65010;BME280;51556;50.002;22.014;2022-09-09T07:45:25;99036.00;;;19.34;75.62
65010;BME280;51556;50.002;22.014;2022-09-09T07:47:53;99038.07;;;19.43;75.77
65010;BME280;51556;50.002;22.014;2022-09-09T07:50:18;99036.38;;;19.53;75.62
65010;BME280;51556;50.002;22.014;2022-09-09T07:52:44;99034.73;;;19.64;75.44
65010;BME280;51556;50.002;22.014;2022-09-09T07:55:09;99033.07;;;19.75;75.36
65010;BME280;51556;50.002;22.014;2022-09-09T07:57:35;99035.48;;;19.84;74.90
65010;BME280;51556;50.002;22.014;2022-09-09T08:00:03;99036.67;;;19.93;74.70
65010;BME280;51556;50.002;22.014;2022-09-09T08:02:29;99045.89;;;20.02;73.47
65010;BME280;51556;50.002;22.014;2022-09-09T08:04:55;99047.98;;;20.07;72.46
65010;BME280;51556;50.002;22.014;2022-09-09T08:07:22;99050.16;;;20.10;72.47
65010;BME280;51556;50.002;22.014;2022-09-09T08:09:48;99054.02;;;20.16;71.74
65010;BME280;51556;50.002;22.014;2022-09-09T08:12:14;99058.26;;;20.21;70.98
65010;BME280;51556;50.002;22.014;2022-09-09T08:14:40;99060.68;;;20.20;70.77
65010;BME280;51556;50.002;22.014;2022-09-09T08:17:06;99056.24;;;20.25;70.64
65010;BME280;51556;50.002;22.014;2022-09-09T08:19:32;99058.48;;;20.31;70.94
65010;BME280;51556;50.002;22.014;2022-09-09T08:22:02;99055.90;;;20.45;70.64
65010;BME280;51556;50.002;22.014;2022-09-09T08:24:28;99053.31;;;20.54;69.82
65010;BME280;51556;50.002;22.014;2022-09-09T08:26:54;99056.98;;;20.62;70.13
65010;BME280;51556;50.002;22.014;2022-09-09T08:29:22;99061.95;;;20.68;69.13
65010;BME280;51556;50.002;22.014;2022-09-09T08:31:53;99068.02;;;20.66;68.30
65010;BME280;51556;50.002;22.014;2022-09-09T08:34:20;99069.13;;;20.73;68.17
65010;BME280;51556;50.002;22.014;2022-09-09T08:36:48;99064.40;;;20.81;68.37
65010;BME280;51556;50.002;22.014;2022-09-09T08:39:16;99062.90;;;20.92;68.14
65010;BME280;51556;50.002;22.014;2022-09-09T08:41:59;99061.83;;;20.99;67.49
65010;BME280;51556;50.002;22.014;2022-09-09T08:47:28;99053.78;;;21.02;67.30
65010;BME280;51556;50.002;22.014;2022-09-09T08:55:57;99048.57;;;21.07;65.91
65010;BME280;51556;50.002;22.014;2022-09-09T08:58:33;99046.28;;;21.11;66.52
65010;BME280;51556;50.002;22.014;2022-09-09T09:11:48;99058.23;;;21.24;64.89
65010;BME280;51556;50.002;22.014;2022-09-09T09:14:22;99056.56;;;21.34;65.25
65010;BME280;51556;50.002;22.014;2022-09-09T09:16:56;99057.34;;;21.46;64.73
65010;BME280;51556;50.002;22.014;2022-09-09T09:19:23;99058.00;;;21.56;64.60
65010;BME280;51556;50.002;22.014;2022-09-09T09:22:05;99059.96;;;21.65;64.24
65010;BME280;51556;50.002;22.014;2022-09-09T09:24:54;99059.52;;;21.74;64.45
65010;BME280;51556;50.002;22.014;2022-09-09T09:27:34;99062.45;;;21.78;63.81
65010;BME280;51556;50.002;22.014;2022-09-09T09:30:10;99062.95;;;21.80;62.64
65010;BME280;51556;50.002;22.014;2022-09-09T09:32:39;99068.70;;;21.78;62.52
65010;BME280;51556;50.002;22.014;2022-09-09T09:35:12;99066.91;;;21.80;62.31
65010;BME280;51556;50.002;22.014;2022-09-09T09:37:40;99066.20;;;21.87;62.63
65010;BME280;51556;50.002;22.014;2022-09-09T09:40:17;99066.80;;;21.97;62.71
65010;BME280;51556;50.002;22.014;2022-09-09T09:45:28;99061.10;;;22.16;62.55
65010;BME280;51556;50.002;22.014;2022-09-09T09:48:02;99064.66;;;22.23;61.88
65010;BME280;51556;50.002;22.014;2022-09-09T09:50:28;99065.36;;;22.32;61.41
65010;BME280;51556;50.002;22.014;2022-09-09T09:52:59;99069.94;;;22.35;60.53
65010;BME280;51556;50.002;22.014;2022-09-09T09:55:28;99070.80;;;22.39;60.35
65010;BME280;51556;50.002;22.014;2022-09-09T09:58:06;99075.23;;;22.44;60.29
65010;BME280;51556;50.002;22.014;2022-09-09T10:00:33;99081.54;;;22.54;60.22
65010;BME280;51556;50.002;22.014;2022-09-09T10:03:01;99078.73;;;22.63;58.53
65010;BME280;51556;50.002;22.014;2022-09-09T10:05:29;99075.46;;;22.63;58.32
65010;BME280;51556;50.002;22.014;2022-09-09T10:08:12;99073.64;;;22.73;58.46
65010;BME280;51556;50.002;22.014;2022-09-09T10:10:57;99074.55;;;22.89;56.85
65010;BME280;51556;50.002;22.014;2022-09-09T10:16:16;99069.48;;;23.17;56.83
65010;BME280;51556;50.002;22.014;2022-09-09T10:18:56;99065.75;;;23.26;57.39
65010;BME280;51556;50.002;22.014;2022-09-09T10:33:13;99065.55;;;23.48;55.78
65010;BME280;51556;50.002;22.014;2022-09-09T10:36:25;99064.05;;;23.40;54.80
65010;BME280;51556;50.002;22.014;2022-09-09T10:42:01;99067.58;;;22.86;54.20
65010;BME280;51556;50.002;22.014;2022-09-09T10:55:41;99076.55;;;22.65;55.63
65010;BME280;51556;50.002;22.014;2022-09-09T10:58:14;99076.72;;;22.52;56.07
65010;BME280;51556;50.002;22.014;2022-09-09T11:00:47;99077.30;;;22.45;56.59
65010;BME280;51556;50.002;22.014;2022-09-09T11:03:24;99076.10;;;22.44;57.00
65010;BME280;51556;50.002;22.014;2022-09-09T11:05:59;99080.05;;;22.53;57.28
65010;BME280;51556;50.002;22.014;2022-09-09T11:08:28;99081.79;;;22.60;56.70
65010;BME280;51556;50.002;22.014;2022-09-09T11:13:55;99090.04;;;22.63;57.16
65010;BME280;51556;50.002;22.014;2022-09-09T11:16:35;99089.80;;;22.68;57.34
65010;BME280;51556;50.002;22.014;2022-09-09T11:19:25;99095.80;;;22.67;57.04
65010;BME280;51556;50.002;22.014;2022-09-09T11:21:53;99095.55;;;22.61;57.09
65010;BME280;51556;50.002;22.014;2022-09-09T11:24:28;99099.48;;;22.57;56.90
65010;BME280;51556;50.002;22.014;2022-09-09T11:26:56;99096.59;;;22.53;57.17
65010;BME280;51556;50.002;22.014;2022-09-09T11:40:30;99115.58;;;22.58;57.58
65010;BME280;51556;50.002;22.014;2022-09-09T11:45:32;99114.14;;;22.64;57.36
65010;BME280;51556;50.002;22.014;2022-09-09T11:48:02;99110.90;;;22.62;56.74
65010;BME280;51556;50.002;22.014;2022-09-09T11:50:31;99115.02;;;22.60;57.06
65010;BME280;51556;50.002;22.014;2022-09-09T11:53:23;99114.56;;;22.63;57.29
65010;BME280;51556;50.002;22.014;2022-09-09T11:56:12;99111.74;;;22.67;57.23
65010;BME280;51556;50.002;22.014;2022-09-09T11:58:41;99112.33;;;22.68;57.25
65010;BME280;51556;50.002;22.014;2022-09-09T12:01:48;99110.04;;;22.71;57.23
65010;BME280;51556;50.002;22.014;2022-09-09T12:09:29;99101.57;;;22.66;57.03
65010;BME280;51556;50.002;22.014;2022-09-09T12:12:33;99102.11;;;22.71;57.33
65010;BME280;51556;50.002;22.014;2022-09-09T12:17:26;99089.99;;;22.91;57.02
65010;BME280;51556;50.002;22.014;2022-09-09T12:26:07;99086.69;;;23.31;56.29
65010;BME280;51556;50.002;22.014;2022-09-09T12:28:17;99082.42;;;23.80;56.10
65010;BME280;51556;50.002;22.014;2022-09-09T12:31:24;99080.56;;;24.42;54.91
65010;BME280;51556;50.002;22.014;2022-09-09T12:33:47;99080.17;;;24.71;53.41
65010;BME280;51556;50.002;22.014;2022-09-09T12:36:16;99085.98;;;24.97;53.40
65010;BME280;51556;50.002;22.014;2022-09-09T12:38:45;99084.23;;;25.16;52.45
65010;BME280;51556;50.002;22.014;2022-09-09T12:41:36;99086.76;;;25.28;52.45
65010;BME280;51556;50.002;22.014;2022-09-09T12:44:06;99085.20;;;25.39;51.59
65010;BME280;51556;50.002;22.014;2022-09-09T12:46:42;99079.58;;;25.44;51.00
65010;BME280;51556;50.002;22.014;2022-09-09T12:51:59;99066.95;;;25.58;50.43
65010;BME280;51556;50.002;22.014;2022-09-09T12:54:26;99061.45;;;25.60;49.72
65010;BME280;51556;50.002;22.014;2022-09-09T12:56:51;99062.01;;;25.66;50.18
65010;BME280;51556;50.002;22.014;2022-09-09T12:59:27;99064.48;;;25.69;49.96
65010;BME280;51556;50.002;22.014;2022-09-09T13:02:00;99068.52;;;25.68;49.39
65010;BME280;51556;50.002;22.014;2022-09-09T13:04:26;99069.54;;;25.60;49.63
65010;BME280;51556;50.002;22.014;2022-09-09T13:06:51;99066.09;;;25.59;49.99
65010;BME280;51556;50.002;22.014;2022-09-09T13:09:21;99072.70;;;25.58;49.90
65010;BME280;51556;50.002;22.014;2022-09-09T13:11:52;99073.57;;;25.54;49.62
65010;BME280;51556;50.002;22.014;2022-09-09T13:14:30;99077.85;;;25.50;49.76
65010;BME280;51556;50.002;22.014;2022-09-09T13:17:02;99078.99;;;25.48;49.49
65010;BME280;51556;50.002;22.014;2022-09-09T13:19:36;99079.95;;;25.47;49.76
65010;BME280;51556;50.002;22.014;2022-09-09T13:22:14;99077.52;;;25.52;49.85
65010;BME280;51556;50.002;22.014;2022-09-09T13:24:44;99080.23;;;25.68;49.78
65010;BME280;51556;50.002;22.014;2022-09-09T13:27:31;99079.84;;;25.82;49.38
65010;BME280;51556;50.002;22.014;2022-09-09T13:29:57;99085.11;;;25.83;48.96
65010;BME280;51556;50.002;22.014;2022-09-09T13:32:25;99086.88;;;25.86;49.25
65010;BME280;51556;50.002;22.014;2022-09-09T13:34:57;99082.84;;;25.71;47.34
65010;BME280;51556;50.002;22.014;2022-09-09T13:37:36;99086.95;;;25.59;48.32
65010;BME280;51556;50.002;22.014;2022-09-09T13:40:04;99081.27;;;25.68;48.89
65010;BME280;51556;50.002;22.014;2022-09-09T13:42:33;99080.00;;;25.76;49.14
65010;BME280;51556;50.002;22.014;2022-09-09T13:45:01;99081.61;;;25.88;48.59
65010;BME280;51556;50.002;22.014;2022-09-09T13:47:34;99074.33;;;26.02;48.02
65010;BME280;51556;50.002;22.014;2022-09-09T13:52:57;99059.64;;;26.45;47.53
65010;BME280;51556;50.002;22.014;2022-09-09T13:55:25;99057.27;;;26.77;46.75
65010;BME280;51556;50.002;22.014;2022-09-09T13:57:59;99060.58;;;27.08;46.70
65010;BME280;51556;50.002;22.014;2022-09-09T14:00:33;99064.46;;;27.26;45.69
65010;BME280;51556;50.002;22.014;2022-09-09T14:02:59;99058.15;;;27.53;45.36
65010;BME280;51556;50.002;22.014;2022-09-09T14:05:32;99052.49;;;27.65;44.41
65010;BME280;51556;50.002;22.014;2022-09-09T14:07:58;99052.19;;;27.64;44.29
65010;BME280;51556;50.002;22.014;2022-09-09T14:10:25;99050.39;;;27.72;44.24
65010;BME280;51556;50.002;22.014;2022-09-09T14:12:51;99046.73;;;27.82;43.75
65010;BME280;51556;50.002;22.014;2022-09-09T14:15:18;99043.12;;;27.61;42.42
65010;BME280;51556;50.002;22.014;2022-09-09T14:17:44;99044.65;;;27.51;43.40
65010;BME280;51556;50.002;22.014;2022-09-09T14:20:10;99042.98;;;27.66;44.09
65010;BME280;51556;50.002;22.014;2022-09-09T14:22:37;99036.38;;;27.86;43.93
65010;BME280;51556;50.002;22.014;2022-09-09T14:25:04;99041.00;;;28.09;43.64
65010;BME280;51556;50.002;22.014;2022-09-09T14:27:31;99043.30;;;28.25;43.19
65010;BME280;51556;50.002;22.014;2022-09-09T14:29:58;99043.84;;;28.40;42.74
65010;BME280;51556;50.002;22.014;2022-09-09T14:32:25;99038.42;;;28.52;42.11
65010;BME280;51556;50.002;22.014;2022-09-09T14:34:51;99035.64;;;28.63;42.08
65010;BME280;51556;50.002;22.014;2022-09-09T14:37:17;99035.67;;;28.68;41.95
65010;BME280;51556;50.002;22.014;2022-09-09T14:39:43;99035.42;;;28.72;41.50
65010;BME280;51556;50.002;22.014;2022-09-09T14:42:10;99038.73;;;28.75;41.70
65010;BME280;51556;50.002;22.014;2022-09-09T14:44:37;99036.67;;;28.77;41.32
65010;BME280;51556;50.002;22.014;2022-09-09T14:47:06;99036.84;;;28.83;41.18
65010;BME280;51556;50.002;22.014;2022-09-09T14:49:36;99034.20;;;28.92;41.26
65010;BME280;51556;50.002;22.014;2022-09-09T14:52:03;99034.39;;;29.02;40.94
65010;BME280;51556;50.002;22.014;2022-09-09T14:54:29;99037.17;;;29.08;40.97
65010;BME280;51556;50.002;22.014;2022-09-09T14:56:55;99039.16;;;29.05;40.35
65010;BME280;51556;50.002;22.014;2022-09-09T14:59:22;99039.90;;;29.01;40.68
65010;BME280;51556;50.002;22.014;2022-09-09T15:01:47;99037.38;;;29.01;41.09
65010;BME280;51556;50.002;22.014;2022-09-09T15:04:13;99034.08;;;28.98;40.09
65010;BME280;51556;50.002;22.014;2022-09-09T15:06:45;99036.48;;;28.83;40.35
65010;BME280;51556;50.002;22.014;2022-09-09T15:09:14;99033.65;;;28.65;40.49
65010;BME280;51556;50.002;22.014;2022-09-09T15:11:40;99035.15;;;28.45;41.91
65010;BME280;51556;50.002;22.014;2022-09-09T15:14:08;99036.22;;;28.34;41.62
65010;BME280;51556;50.002;22.014;2022-09-09T15:16:34;99035.14;;;28.25;42.00
65010;BME280;51556;50.002;22.014;2022-09-09T15:19:01;99035.31;;;28.21;41.86
65010;BME280;51556;50.002;22.014;2022-09-09T15:21:29;99036.73;;;28.18;42.03
65010;BME280;51556;50.002;22.014;2022-09-09T15:23:55;99037.48;;;28.09;42.03
65010;BME280;51556;50.002;22.014;2022-09-09T15:26:22;99040.16;;;27.97;42.05
65010;BME280;51556;50.002;22.014;2022-09-09T15:28:49;99039.98;;;27.88;42.11
65010;BME280;51556;50.002;22.014;2022-09-09T15:31:21;99035.96;;;27.80;42.52
65010;BME280;51556;50.002;22.014;2022-09-09T15:33:50;99030.39;;;27.67;43.01
65010;BME280;51556;50.002;22.014;2022-09-09T15:36:24;99026.23;;;27.62;42.95